Time;durP1;ratioP1;P1;durP2;ratioP2;P2;SDS_P1;SDS_P2;PMS_P1;PMS_P2;Temp;Humidity;BMP_temperature;BMP_pressure;BME280_temperature;BME280_humidity;BME280_pressure;Samples;Min_cycle;Max_cycle;Signal;HPM_P1;HPM_P2
2022/01/02 00:02:12;;;;;;;;;;;11.90;99.90;;;;;;10208047;28;85966;-53
2022/01/02 00:07:14;;;;;;;;;;;11.90;99.90;;;;;;10208853;28;84087;-53
2022/01/02 00:12:17;;;;;;;;;;;11.90;99.90;;;;;;10208863;28;85163;-56
2022/01/02 00:17:22;;;;;;;;;;;11.90;99.90;;;;;;10208590;28;84841;-52
2022/01/02 00:22:35;;;;;;;;;;;11.90;99.90;;;;;;10207346;28;85915;-53
2022/01/02 00:27:35;;;;;;;;;;;12.00;99.90;;;;;;10207459;28;84051;-54
2022/01/02 00:32:37;;;;;;;3.60;2.00;;;12.00;99.90;;;;;;10206708;28;85041;-50
2022/01/02 00:37:39;;;;;;;;;;;12.00;99.90;;;;;;10205612;28;84018;-55
2022/01/02 00:42:41;;;;;;;;;;;12.00;99.90;;;;;;10205018;28;86995;-55
2022/01/02 00:47:44;;;;;;;;;;;12.00;99.90;;;;;;10204711;28;84375;-51
2022/01/02 00:52:46;;;;;;;;;;;12.00;99.90;;;;;;10206802;28;84507;-52
2022/01/02 00:57:55;;;;;;;;;;;12.00;99.90;;;;;;10207225;28;84014;-55
2022/01/02 01:02:57;;;;;;;;;;;12.00;99.90;;;;;;10207723;28;84033;-55
2022/01/02 01:08:00;;;;;;;;;;;12.00;99.90;;;;;;10204626;28;86687;-55
2022/01/02 01:13:03;;;;;;;;;;;12.00;99.90;;;;;;10205830;28;85935;-53
2022/01/02 01:18:03;;;;;;;;;;;12.00;99.90;;;;;;10206441;28;84106;-55
2022/01/02 01:23:05;;;;;;;;;;;12.00;99.90;;;;;;10204856;28;85750;-58
2022/01/02 01:28:05;;;;;;;;;;;12.10;99.90;;;;;;10206870;28;84381;-55
2022/01/02 01:33:06;;;;;;;;;;;12.10;99.90;;;;;;10204727;28;86126;-58
2022/01/02 01:38:07;;;;;;;;;;;12.10;99.90;;;;;;10206661;28;84909;-56
2022/01/02 01:43:12;;;;;;;;;;;12.10;99.90;;;;;;10204067;28;86440;-57
2022/01/02 01:48:15;;;;;;;;;;;12.10;99.90;;;;;;10204520;28;86496;-56
2022/01/02 01:53:15;;;;;;;;;;;12.00;99.90;;;;;;10203110;28;86628;-53
2022/01/02 01:58:17;;;;;;;;;;;12.10;99.90;;;;;;10188063;28;84964;-59
2022/01/02 02:03:20;;;;;;;;;;;12.10;99.90;;;;;;10203836;28;85730;-55
2022/01/02 02:08:26;;;;;;;;;;;12.20;99.90;;;;;;10202953;28;85892;-54
2022/01/02 02:13:27;;;;;;;;;;;12.20;99.90;;;;;;10203580;28;85968;-56
2022/01/02 02:18:30;;;;;;;;;;;12.10;99.90;;;;;;10203576;28;85986;-57
2022/01/02 02:23:32;;;;;;;;;;;12.20;99.90;;;;;;10202955;28;86614;-54
2022/01/02 02:28:33;;;;;;;;;;;12.10;99.90;;;;;;10204738;28;84760;-57
2022/01/02 02:33:35;;;;;;;;;;;12.10;99.90;;;;;;10203352;28;85864;-56
2022/01/02 02:38:38;;;;;;;;;;;12.00;99.90;;;;;;10204673;28;84699;-53
2022/01/02 02:43:48;;;;;;;;;;;12.10;99.90;;;;;;10203009;28;87121;-56
2022/01/02 02:49:03;;;;;;;2.95;1.50;;;12.00;99.90;;;;;;10202957;28;86328;-56
2022/01/02 02:54:05;;;;;;;;;;;12.10;99.90;;;;;;10201730;28;85823;-57
2022/01/02 02:59:06;;;;;;;;;;;12.10;99.90;;;;;;10203137;28;84177;-56
2022/01/02 03:04:07;;;;;;;;;;;12.10;99.90;;;;;;10204935;28;86867;-58
2022/01/02 03:09:09;;;;;;;;;;;12.00;99.90;;;;;;10209585;28;86569;-54
2022/01/02 03:14:12;;;;;;;;;;;12.00;99.90;;;;;;10209464;28;86949;-55
2022/01/02 03:19:13;;;;;;;;;;;12.00;99.90;;;;;;10208755;28;84973;-56
2022/01/02 03:24:14;;;;;;;;;;;12.00;99.90;;;;;;10208106;28;86117;-53
2022/01/02 03:29:15;;;;;;;;;;;12.00;99.90;;;;;;10209904;28;84141;-55
2022/01/02 03:34:15;;;;;;;;;;;11.90;99.90;;;;;;10210789;28;84722;-55
2022/01/02 03:39:16;;;;;;;;;;;11.90;99.90;;;;;;10208379;28;86964;-51
2022/01/02 03:44:17;;;;;;;;;;;11.90;99.90;;;;;;10208466;28;85652;-54
2022/01/02 03:49:17;;;;;;;;;;;11.90;99.90;;;;;;10207600;28;86885;-55
2022/01/02 03:54:18;;;;;;;;;;;11.90;99.90;;;;;;10207091;28;86784;-52
2022/01/02 03:59:19;;;;;;;;;;;11.80;99.90;;;;;;10209505;28;84472;-56
2022/01/02 04:04:19;;;;;;;;;;;11.80;99.90;;;;;;10208079;28;87505;-58
2022/01/02 04:09:21;;;;;;;;;;;11.70;99.90;;;;;;10207683;28;85931;-53
2022/01/02 04:14:22;;;;;;;;;;;11.60;99.90;;;;;;10206546;28;87076;-57
2022/01/02 04:19:22;;;;;;;;;;;11.60;99.90;;;;;;10206972;28;86679;-59
2022/01/02 04:24:23;;;;;;;;;;;11.60;99.90;;;;;;10206993;28;86731;-58
2022/01/02 04:29:24;;;;;;;;;;;11.50;99.90;;;;;;10207221;28;84927;-54
2022/01/02 04:34:25;;;;;;;;;;;11.60;99.90;;;;;;10206585;28;86919;-56
2022/01/02 04:39:25;;;;;;;;;;;11.50;99.90;;;;;;10205997;28;85844;-56
2022/01/02 04:44:28;;;;;;;;;;;11.60;99.90;;;;;;10205154;28;85784;-54
2022/01/02 04:49:28;;;;;;;;;;;11.60;99.90;;;;;;10205120;28;85962;-51
2022/01/02 04:54:31;;;;;;;;;;;11.60;99.90;;;;;;10205516;28;84276;-51
2022/01/02 04:59:32;;;;;;;;;;;11.70;99.90;;;;;;10205784;28;87004;-56
2022/01/02 05:04:33;;;;;;;;;;;11.70;99.90;;;;;;10204843;28;86927;-56
2022/01/02 05:09:34;;;;;;;;;;;11.70;99.90;;;;;;10204133;28;86698;-59
2022/01/02 05:14:35;;;;;;;;;;;11.70;99.90;;;;;;10203306;28;85607;-55
2022/01/02 05:19:36;;;;;;;;;;;11.70;99.90;;;;;;10203989;28;86176;-55
2022/01/02 05:24:37;;;;;;;;;;;11.80;99.90;;;;;;10204347;28;86834;-52
2022/01/02 05:29:38;;;;;;;;;;;11.70;99.90;;;;;;10203983;28;86745;-55
2022/01/02 05:34:39;;;;;;;;;;;11.80;99.90;;;;;;10204607;28;86093;-55
2022/01/02 05:39:42;;;;;;;;;;;11.80;99.90;;;;;;10203411;28;86812;-52
2022/01/02 05:44:42;;;;;;;;;;;11.80;99.90;;;;;;10205950;28;84258;-55
2022/01/02 05:49:43;;;;;;;;;;;11.80;99.90;;;;;;10203705;28;85985;-58
2022/01/02 05:54:44;;;;;;;;;;;11.90;99.90;;;;;;10189076;23;85831;-55
2022/01/02 05:59:46;;;;;;;;;;;11.90;99.90;;;;;;10163831;28;85891;-52
2022/01/02 06:04:47;;;;;;;;;;;11.90;99.90;;;;;;10180079;28;85023;-54
2022/01/02 06:09:48;;;;;;;;;;;11.90;99.90;;;;;;10165903;28;84209;-52
2022/01/02 06:14:49;;;;;;;4.20;1.80;;;11.80;99.90;;;;;;10165205;28;84728;-54
2022/01/02 06:19:50;;;;;;;;;;;11.90;99.90;;;;;;10163709;28;85817;-51
2022/01/02 06:24:51;;;;;;;;;;;11.90;99.90;;;;;;10162284;28;87201;-56
2022/01/02 06:29:51;;;;;;;;;;;11.90;99.90;;;;;;10163277;28;84928;-51
2022/01/02 06:34:52;;;;;;;;;;;11.90;99.90;;;;;;10164085;28;84126;-51
2022/01/02 06:39:53;;;;;;;;;;;11.90;99.90;;;;;;10165697;28;85157;-55
2022/01/02 06:44:53;;;;;;;;;;;11.90;99.90;;;;;;10169155;28;85705;-51
2022/01/02 06:49:54;;;;;;;;;;;11.90;99.90;;;;;;10167929;28;86299;-57
2022/01/02 06:54:55;;;;;;;7.35;2.60;;;12.00;99.90;;;;;;10169200;28;86868;-57
2022/01/02 06:59:56;;;;;;;;;;;12.00;99.90;;;;;;10167705;28;86128;-54
2022/01/02 07:04:57;;;;;;;;;;;12.00;99.90;;;;;;10168490;28;85979;-53
2022/01/02 07:09:58;;;;;;;;;;;12.00;99.90;;;;;;10167582;28;86776;-53
2022/01/02 07:14:58;;;;;;;;;;;12.00;99.90;;;;;;10169431;28;86401;-51
2022/01/02 07:19:59;;;;;;;;;;;12.00;99.90;;;;;;10169046;28;84223;-51
2022/01/02 07:24:59;;;;;;;;;;;12.10;99.90;;;;;;10168712;28;84956;-51
2022/01/02 07:30:00;;;;;;;5.95;2.25;;;12.10;99.90;;;;;;10170565;28;84037;-53
2022/01/02 07:35:01;;;;;;;;;;;12.00;99.90;;;;;;10166853;28;84977;-55
2022/01/02 07:40:03;;;;;;;;;;;12.00;99.90;;;;;;10168509;28;84867;-51
2022/01/02 07:45:04;;;;;;;;;;;11.90;99.90;;;;;;10167837;28;84770;-58
2022/01/02 07:50:05;;;;;;;;;;;11.90;99.90;;;;;;10166206;28;84916;-54
2022/01/02 07:55:05;;;;;;;;;;;11.90;99.90;;;;;;10167249;28;84788;-55
2022/01/02 08:00:06;;;;;;;;;;;11.90;99.90;;;;;;10165957;28;86074;-55
2022/01/02 08:05:12;;;;;;;;;;;11.90;99.90;;;;;;10168811;28;84142;-58
2022/01/02 08:10:13;;;;;;;;;;;11.90;99.90;;;;;;10166772;28;85769;-55
2022/01/02 08:15:14;;;;;;;;;;;11.90;99.90;;;;;;10168450;28;84063;-58
2022/01/02 08:20:15;;;;;;;;;;;11.90;99.90;;;;;;10169183;28;84957;-53
2022/01/02 08:25:16;;;;;;;;;;;11.90;99.90;;;;;;10166828;28;84205;-57
2022/01/02 08:30:16;;;;;;;;;;;11.90;99.90;;;;;;10166593;28;86067;-57
2022/01/02 08:35:17;;;;;;;;;;;11.90;99.90;;;;;;10166966;28;84054;-55
2022/01/02 08:40:17;;;;;;;;;;;12.00;99.90;;;;;;10166310;28;84055;-57
2022/01/02 08:45:18;;;;;;;;;;;12.10;99.90;;;;;;10166463;28;84325;-53
2022/01/02 08:50:18;;;;;;;;;;;12.10;99.90;;;;;;10163997;28;85887;-59
2022/01/02 08:55:19;;;;;;;;;;;12.20;99.90;;;;;;10165386;28;84208;-58
2022/01/02 09:00:19;;;;;;;;;;;12.30;99.90;;;;;;10164876;28;84928;-58
2022/01/02 09:05:21;;;;;;;;;;;12.30;99.90;;;;;;10166289;28;85102;-55
2022/01/02 09:10:23;;;;;;;4.30;1.80;;;12.40;99.90;;;;;;10168187;28;86118;-55
2022/01/02 09:15:24;;;;;;;;;;;12.40;99.90;;;;;;10168192;28;84776;-53
2022/01/02 09:20:25;;;;;;;;;;;12.50;99.90;;;;;;10167081;28;85006;-50
2022/01/02 09:25:26;;;;;;;;;;;12.60;99.90;;;;;;10167601;28;86880;-53
2022/01/02 09:30:27;;;;;;;;;;;12.70;99.90;;;;;;10166447;28;86516;-58
2022/01/02 09:35:27;;;;;;;;;;;12.80;99.90;;;;;;10167111;28;85054;-51
2022/01/02 09:40:28;;;;;;;;;;;12.90;99.90;;;;;;10168490;28;84811;-56
2022/01/02 09:45:33;;;;;;;;;;;13.00;99.90;;;;;;10150311;28;84451;-52
2022/01/02 09:50:35;;;;;;;;;;;13.20;99.90;;;;;;10167515;28;84696;-58
2022/01/02 09:55:36;;;;;;;;;;;13.50;99.90;;;;;;10165559;28;84544;-56
2022/01/02 10:00:37;;;;;;;;;;;13.30;99.90;;;;;;10168117;28;84137;-56
2022/01/02 10:05:52;;;;;;;;;;;13.30;99.90;;;;;;10166911;28;84799;-56
2022/01/02 10:10:59;;;;;;;;;;;13.30;99.90;;;;;;10167175;28;84320;-51
2022/01/02 10:15:59;;;;;;;;;;;13.50;99.90;;;;;;10172145;28;83973;-56
2022/01/02 10:21:00;;;;;;;;;;;13.70;99.90;;;;;;10173847;28;85103;-55
2022/01/02 10:26:01;;;;;;;2.40;1.30;;;13.70;99.90;;;;;;10173177;28;85013;-55
2022/01/02 10:31:09;;;;;;;2.80;1.65;;;13.70;99.90;;;;;;10171773;28;86004;-54
2022/01/02 10:36:09;;;;;;;;;;;13.60;99.90;;;;;;10171162;28;84742;-54
2022/01/02 10:41:10;;;;;;;5.33;1.30;;;13.40;99.90;;;;;;10171465;28;84980;-56
2022/01/02 10:46:10;;;;;;;;;;;12.90;99.90;;;;;;10170240;28;85005;-55
2022/01/02 10:51:16;;;;;;;;;;;12.50;99.90;;;;;;10154078;28;85049;-52
2022/01/02 10:56:19;;;;;;;;;;;12.40;99.90;;;;;;10169524;28;84139;-56
2022/01/02 11:01:20;;;;;;;3.70;1.50;;;12.50;99.90;;;;;;10169948;28;84063;-55
2022/01/02 11:06:26;;;;;;;;;;;12.60;99.90;;;;;;10168100;28;85983;-56
2022/01/02 11:11:27;;;;;;;4.30;1.60;;;12.70;99.90;;;;;;10172393;28;84297;-52
2022/01/02 11:16:30;;;;;;;2.50;1.50;;;13.00;99.90;;;;;;10170169;28;86995;-54
2022/01/02 11:21:33;;;;;;;;;;;13.00;99.90;;;;;;10170158;28;84017;-56
2022/01/02 11:27:11;;;;;;;3.20;1.50;;;13.10;99.90;;;;;;10171730;28;84961;-56
2022/01/02 11:32:19;;;;;;;;;;;13.30;99.90;;;;;;10170186;28;84674;-56
2022/01/02 11:37:21;;;;;;;;;;;13.60;99.90;;;;;;10169985;28;84839;-57
2022/01/02 11:42:34;;;;;;;;;;;13.80;99.90;;;;;;10169175;28;85042;-56
2022/01/02 11:47:40;;;;;;;2.85;1.95;;;13.90;99.90;;;;;;10169465;28;84214;-57
2022/01/02 11:52:41;;;;;;;2.90;1.90;;;14.00;99.90;;;;;;10201986;23;84036;-56
2022/01/02 11:57:42;;;;;;;;;;;14.00;99.90;;;;;;10209132;28;84050;-55
2022/01/02 12:02:43;;;;;;;5.03;1.85;;;14.00;99.90;;;;;;10209345;28;84915;-55
2022/01/02 12:07:50;;;;;;;3.40;1.75;;;13.90;99.90;;;;;;10208217;28;88890;-55
2022/01/02 12:13:05;;;;;;;5.00;2.03;;;13.90;99.90;;;;;;10207527;28;84865;-58
2022/01/02 12:18:09;;;;;;;;;;;13.90;99.90;;;;;;10206749;28;85011;-53
2022/01/02 12:23:09;;;;;;;;;;;13.80;99.90;;;;;;10208546;28;85085;-56
2022/01/02 12:28:10;;;;;;;;;;;13.80;99.90;;;;;;10208892;28;84821;-56
2022/01/02 12:33:25;;;;;;;2.10;1.60;;;13.70;99.90;;;;;;10209972;28;84005;-55
2022/01/02 12:38:26;;;;;;;2.60;2.00;;;13.70;99.90;;;;;;10208610;28;85052;-57
2022/01/02 12:43:26;;;;;;;;;;;13.60;99.90;;;;;;10208494;28;84207;-54
2022/01/02 12:48:32;;;;;;;2.45;1.35;;;13.60;99.90;;;;;;10209913;28;85530;-58
2022/01/02 12:53:32;;;;;;;;;;;13.50;99.90;;;;;;10208568;28;85057;-56
2022/01/02 12:58:34;;;;;;;;;;;13.50;99.90;;;;;;10208600;28;84971;-54
2022/01/02 13:03:35;;;;;;;;;;;13.50;99.90;;;;;;10208784;28;84044;-57
2022/01/02 13:08:36;;;;;;;;;;;13.50;99.90;;;;;;10208636;28;84983;-56
2022/01/02 13:13:36;;;;;;;;;;;13.50;99.90;;;;;;10207993;28;84582;-56
2022/01/02 13:18:38;;;;;;;;;;;13.40;99.90;;;;;;10207577;28;84942;-51
2022/01/02 13:23:39;;;;;;;;;;;13.50;99.90;;;;;;10206712;28;85136;-57
2022/01/02 13:28:39;;;;;;;;;;;13.50;99.90;;;;;;10207241;28;84081;-52
2022/01/02 13:33:43;;;;;;;;;;;13.40;99.90;;;;;;10207006;28;84201;-51
2022/01/02 13:38:57;;;;;;;2.50;1.60;;;13.40;99.90;;;;;;10206878;28;84919;-55
2022/01/02 13:43:58;;;;;;;;;;;13.40;99.90;;;;;;10202109;28;84193;-52
2022/01/02 13:48:59;;;;;;;4.77;1.30;;;13.40;99.90;;;;;;10206849;28;87340;-54
2022/01/02 13:53:59;;;;;;;2.40;1.30;;;13.40;99.90;;;;;;10199776;28;84821;-53
2022/01/02 13:59:00;;;;;;;;;;;13.40;99.90;;;;;;10188625;28;84949;-51
2022/01/02 14:04:02;;;;;;;5.30;1.80;;;13.40;99.90;;;;;;10200611;28;84334;-52
2022/01/02 14:09:04;;;;;;;;;;;13.40;99.90;;;;;;10201764;28;84950;-56
2022/01/02 14:19:09;;;;;;;;;;;13.50;99.90;;;;;;10200224;28;84088;-53
2022/01/02 14:24:10;;;;;;;;;;;13.40;99.90;;;;;;10184741;28;84991;-56
2022/01/02 14:29:10;;;;;;;;;;;13.40;99.90;;;;;;10194219;28;84763;-54
2022/01/02 14:34:11;;;;;;;;;;;13.40;99.90;;;;;;10182745;28;84980;-61
2022/01/02 14:39:12;;;;;;;;;;;13.40;99.90;;;;;;10180475;28;84966;-61
2022/01/02 14:44:13;;;;;;;;;;;13.40;99.90;;;;;;10189398;28;84338;-65
2022/01/02 14:49:15;;;;;;;;;;;13.40;99.90;;;;;;10201535;28;85146;-57
2022/01/02 14:54:17;;;;;;;;;;;13.40;99.90;;;;;;10234478;28;85106;-59
2022/01/02 14:59:17;;;;;;;;;;;13.30;99.90;;;;;;10218858;28;84150;-54
2022/01/02 15:04:18;;;;;;;;;;;13.30;99.90;;;;;;10202602;28;84954;-52
2022/01/02 15:09:19;;;;;;;;;;;13.20;99.90;;;;;;10201526;28;84746;-59
2022/01/02 15:14:20;;;;;;;;;;;13.20;99.90;;;;;;10230276;28;86167;-54
2022/01/02 15:19:21;;;;;;;;;;;13.20;99.90;;;;;;10192285;28;84241;-53
2022/01/02 15:24:21;;;;;;;;;;;13.20;99.90;;;;;;10197409;28;85379;-49
2022/01/02 15:29:22;;;;;;;;;;;13.20;99.90;;;;;;10205412;28;84839;-57
2022/01/02 15:34:23;;;;;;;;;;;13.10;99.90;;;;;;10204176;28;84063;-55
2022/01/02 15:39:24;;;;;;;;;;;13.20;99.90;;;;;;10205705;28;84887;-58
2022/01/02 15:44:24;;;;;;;;;;;13.20;99.90;;;;;;10210103;28;84279;-55
2022/01/02 15:49:25;;;;;;;;;;;13.20;99.90;;;;;;10187661;28;84218;-55
2022/01/02 15:54:26;;;;;;;;;;;13.10;99.90;;;;;;10196406;28;86039;-50
2022/01/02 15:59:26;;;;;;;;;;;13.10;99.90;;;;;;10201248;28;84845;-59
2022/01/02 16:04:27;;;;;;;;;;;13.10;99.90;;;;;;10196382;28;84985;-57
2022/01/02 16:09:27;;;;;;;;;;;13.00;99.90;;;;;;10196140;28;84939;-52
2022/01/02 16:14:28;;;;;;;;;;;13.00;99.90;;;;;;10176188;28;86082;-52
2022/01/02 16:19:29;;;;;;;3.60;1.70;;;13.00;99.90;;;;;;10180978;28;84165;-52
2022/01/02 16:24:29;;;;;;;;;;;13.00;99.90;;;;;;10180781;28;85054;-55
2022/01/02 16:29:31;;;;;;;;;;;13.00;99.90;;;;;;10194664;28;84956;-54
2022/01/02 16:34:31;;;;;;;6.55;1.65;;;12.90;99.90;;;;;;10202834;28;84909;-52
2022/01/02 16:39:32;;;;;;;;;;;12.80;99.90;;;;;;10203300;28;84881;-55
2022/01/02 16:44:32;;;;;;;;;;;12.70;99.90;;;;;;10204328;28;84910;-52
2022/01/02 16:49:33;;;;;;;;;;;12.60;99.90;;;;;;10203237;28;84348;-52
2022/01/02 16:54:33;;;;;;;;;;;12.50;99.90;;;;;;10202886;28;84859;-51
2022/01/02 16:59:34;;;;;;;;;;;12.50;99.90;;;;;;10201062;28;84956;-56
2022/01/02 17:04:34;;;;;;;;;;;12.50;99.90;;;;;;10194464;28;87097;-55
2022/01/02 17:09:35;;;;;;;8.00;3.00;;;12.50;99.90;;;;;;10202548;28;84949;-55
2022/01/02 17:14:36;;;;;;;4.60;2.80;;;12.50;99.90;;;;;;10200182;28;86176;-53
2022/01/02 17:19:36;;;;;;;4.40;2.30;;;12.50;99.90;;;;;;10199335;28;85153;-53
2022/01/02 17:24:37;;;;;;;6.80;3.10;;;12.50;99.90;;;;;;10201486;28;84871;-57
2022/01/02 17:29:38;;;;;;;;;;;12.40;99.90;;;;;;10198191;28;84886;-56
2022/01/02 17:34:38;;;;;;;;;;;12.40;99.90;;;;;;10185801;28;85108;-54
2022/01/02 17:39:39;;;;;;;3.95;2.50;;;12.40;99.90;;;;;;10166668;28;84976;-55
2022/01/02 17:44:40;;;;;;;;;;;12.40;99.90;;;;;;10171727;28;84127;-55
2022/01/02 17:49:41;;;;;;;;;;;12.40;99.90;;;;;;10166673;28;84932;-55
2022/01/02 17:54:41;;;;;;;;;;;12.40;99.90;;;;;;10177281;28;84275;-58
2022/01/02 17:59:42;;;;;;;;;;;12.40;99.90;;;;;;10178785;28;84329;-53
2022/01/02 18:04:43;;;;;;;;;;;12.30;99.90;;;;;;10199471;28;84701;-55
2022/01/02 18:09:48;;;;;;;;;;;12.40;99.90;;;;;;10199405;28;84772;-55
2022/01/02 18:14:49;;;;;;;5.60;1.90;;;12.40;99.90;;;;;;10169175;28;87025;-56
2022/01/02 18:19:50;;;;;;;1.80;1.30;;;12.40;99.90;;;;;;10179216;28;84145;-55
2022/01/02 18:24:54;;;;;;;1.65;1.10;;;12.40;99.90;;;;;;10177691;28;86864;-53
2022/01/02 18:29:55;;;;;;;;;;;12.40;99.90;;;;;;10166561;28;84684;-58
2022/01/02 18:34:57;;;;;;;;;;;12.40;99.90;;;;;;10184218;28;84725;-55
2022/01/02 18:39:57;;;;;;;3.35;1.40;;;12.30;99.90;;;;;;10184155;28;84433;-56
2022/01/02 18:44:58;;;;;;;;;;;12.30;99.90;;;;;;10174766;28;84317;-56
2022/01/02 18:49:59;;;;;;;;;;;12.30;99.90;;;;;;10188705;28;84482;-57
2022/01/02 18:55:00;;;;;;;2.60;1.40;;;12.40;99.90;;;;;;10181650;28;84273;-58
2022/01/02 19:00:00;;;;;;;3.80;1.70;;;12.30;99.90;;;;;;10169543;28;86221;-57
2022/01/02 19:05:01;;;;;;;5.30;1.50;;;12.30;99.90;;;;;;10196135;28;84205;-53
2022/01/02 19:10:02;;;;;;;6.20;2.20;;;12.40;99.90;;;;;;10213383;28;84176;-55
2022/01/02 19:15:05;;;;;;;3.40;1.60;;;12.30;99.90;;;;;;10239112;28;84848;-57
2022/01/02 19:20:06;;;;;;;3.30;2.10;;;12.30;99.90;;;;;;10203842;28;84605;-54
2022/01/02 19:25:07;;;;;;;;;;;12.20;99.90;;;;;;10206085;28;84387;-54
2022/01/02 19:30:08;;;;;;;;;;;12.10;99.90;;;;;;10205744;28;84242;-58
2022/01/02 19:35:10;;;;;;;;;;;12.10;99.90;;;;;;10206284;28;84402;-51
2022/01/02 19:40:11;;;;;;;7.60;2.60;;;12.10;99.90;;;;;;10206074;28;84275;-56
2022/01/02 19:45:13;;;;;;;8.90;2.40;;;12.10;99.90;;;;;;10199271;28;84181;-56
2022/01/02 19:50:13;;;;;;;;;;;12.10;99.90;;;;;;10202951;28;84142;-53
2022/01/02 19:55:15;;;;;;;;;;;12.10;99.90;;;;;;10199254;28;85099;-55
2022/01/02 20:00:17;;;;;;;;;;;12.20;99.90;;;;;;10203083;28;84442;-52
2022/01/02 20:05:19;;;;;;;5.00;2.30;;;12.00;99.90;;;;;;10195727;28;84340;-51
2022/01/02 20:10:20;;;;;;;2.90;1.85;;;11.90;99.90;;;;;;10211721;28;84161;-56
2022/01/02 20:15:21;;;;;;;3.20;2.00;;;11.80;99.90;;;;;;10195217;28;84945;-52
2022/01/02 20:20:23;;;;;;;;;;;11.60;99.90;;;;;;10239150;28;84874;-56
2022/01/02 20:25:28;;;;;;;4.85;1.60;;;11.40;99.90;;;;;;10245575;28;84043;-52
2022/01/02 20:30:29;;;;;;;2.10;1.50;;;11.30;99.90;;;;;;10225177;28;84797;-50
2022/01/02 20:35:30;;;;;;;2.60;1.50;;;11.20;99.90;;;;;;10202544;28;84909;-49
2022/01/02 20:40:31;;;;;;;3.10;1.60;;;11.20;99.90;;;;;;10203280;28;84098;-54
2022/01/02 20:45:33;;;;;;;2.90;1.20;;;11.10;99.90;;;;;;10195884;28;84790;-50
2022/01/02 20:50:39;;;;;;;2.60;1.30;;;10.90;99.90;;;;;;10175072;28;84334;-54
2022/01/02 21:00:44;;;;;;;;;;;10.40;99.90;;;;;;10121784;28;84319;-52
2022/01/02 21:05:44;;;;;;;;;;;10.20;99.90;;;;;;10124246;28;84875;-51
2022/01/02 21:10:46;;;;;;;;;;;10.00;99.90;;;;;;10086781;28;84119;-53
2022/01/02 21:15:47;;;;;;;;;;;10.00;99.90;;;;;;10085211;28;87041;-52
2022/01/02 21:20:48;;;;;;;;;;;9.90;99.90;;;;;;10084159;29;86031;-53
2022/01/02 21:25:48;;;;;;;;;;;9.90;99.90;;;;;;10069389;28;87008;-50
2022/01/02 21:30:49;;;;;;;;;;;9.80;99.90;;;;;;10084192;28;86033;-53
2022/01/02 21:35:49;;;;;;;;;;;9.70;99.90;;;;;;10086871;28;84685;-54
2022/01/02 21:40:50;;;;;;;;;;;9.70;99.90;;;;;;10087536;29;84140;-56
2022/01/02 21:45:51;;;;;;;;;;;9.70;99.90;;;;;;10086573;29;84025;-54
2022/01/02 21:50:51;;;;;;;;;;;9.70;99.90;;;;;;10086428;29;84249;-54
2022/01/02 21:55:52;;;;;;;;;;;9.70;99.90;;;;;;10085736;28;84143;-52
2022/01/02 22:00:53;;;;;;;;;;;9.70;99.90;;;;;;10078762;29;85174;-52
2022/01/02 22:05:56;;;;;;;;;;;9.80;99.90;;;;;;10084838;29;84156;-50
2022/01/02 22:10:57;;;;;;;;;;;9.90;99.90;;;;;;10089600;28;85294;-51
2022/01/02 22:15:58;;;;;;;;;;;9.90;99.90;;;;;;10092973;28;85016;-54
2022/01/02 22:20:59;;;;;;;;;;;10.00;99.90;;;;;;10092661;28;84089;-54
2022/01/02 22:26:00;;;;;;;;;;;10.10;99.90;;;;;;10090507;29;86287;-50
2022/01/02 22:31:01;;;;;;;;;;;10.10;99.90;;;;;;10092406;28;84164;-53
2022/01/02 22:36:02;;;;;;;;;;;10.20;99.90;;;;;;10092196;28;85022;-50
2022/01/02 22:41:03;;;;;;;;;;;10.30;99.90;;;;;;10092040;28;84774;-51
2022/01/02 22:46:04;;;;;;;;;;;10.40;99.90;;;;;;10074501;29;85554;-53
2022/01/02 22:51:06;;;;;;;;;;;10.50;99.90;;;;;;10092310;28;85056;-50
2022/01/02 22:56:10;;;;;;;;;;;10.50;99.90;;;;;;10091496;28;84325;-52
2022/01/02 23:01:11;;;;;;;;;;;10.60;99.90;;;;;;10102597;28;86113;-53
2022/01/02 23:06:13;;;;;;;;;;;10.70;99.90;;;;;;10093371;28;84727;-53
2022/01/02 23:11:15;;;;;;;;;;;10.70;99.90;;;;;;10095797;28;84932;-55
2022/01/02 23:16:20;;;;;;;;;;;10.70;99.90;;;;;;10096096;28;84913;-54
2022/01/02 23:21:23;;;;;;;;;;;10.80;99.90;;;;;;10091845;28;84084;-54
2022/01/02 23:26:24;;;;;;;;;;;10.80;99.90;;;;;;10092974;28;84862;-51
2022/01/02 23:31:25;;;;;;;;;;;10.80;99.90;;;;;;10092774;28;84201;-52
2022/01/02 23:36:26;;;;;;;;;;;10.80;99.90;;;;;;10093071;28;84198;-56
2022/01/02 23:41:27;;;;;;;;;;;10.80;99.90;;;;;;10076815;28;86733;-53
2022/01/02 23:46:36;;;;;;;;;;;10.70;99.90;;;;;;10076186;28;83931;-50
2022/01/02 23:51:37;;;;;;;;;;;10.70;99.90;;;;;;10093395;28;84852;-50
2022/01/02 23:56:38;;;;;;;;;;;10.70;99.90;;;;;;10092564;29;86095;-50
